createdAt,value
2017-12-27T00:00:41.273Z,6.68
2017-12-27T00:01:42.690Z,6.63
2017-12-27T00:02:44.104Z,6.72
2017-12-27T00:03:45.513Z,6.76
2017-12-27T00:04:46.923Z,6.80
2017-12-27T00:05:48.340Z,6.80
2017-12-27T00:06:49.757Z,6.72
2017-12-27T00:07:51.162Z,6.66
2017-12-27T00:08:52.582Z,6.66
2017-12-27T00:09:53.983Z,6.73
2017-12-27T00:10:55.394Z,6.61
2017-12-27T00:11:56.801Z,6.72
2017-12-27T00:12:58.210Z,6.69
2017-12-27T00:13:59.662Z,6.61
2017-12-27T00:15:01.087Z,6.80
2017-12-27T00:16:02.496Z,6.73
2017-12-27T00:17:03.906Z,6.69
2017-12-27T00:18:05.321Z,6.68
2017-12-27T00:19:06.731Z,6.79
2017-12-27T00:20:08.144Z,6.81
2017-12-27T00:21:09.569Z,6.65
2017-12-27T00:22:10.984Z,6.62
2017-12-27T00:23:12.389Z,6.72
2017-12-27T00:24:13.798Z,6.63
2017-12-27T00:25:15.215Z,6.79
2017-12-27T00:26:16.631Z,6.62
2017-12-27T00:27:18.140Z,6.69
2017-12-27T00:28:19.558Z,6.61
2017-12-27T00:29:20.966Z,6.61
2017-12-27T00:30:22.372Z,6.61
2017-12-27T00:31:23.795Z,6.68
2017-12-27T00:32:25.209Z,6.66
2017-12-27T00:33:26.621Z,6.72
2017-12-27T00:34:28.029Z,6.71
2017-12-27T00:35:29.435Z,6.62
2017-12-27T00:36:30.841Z,6.69
2017-12-27T00:37:32.242Z,6.66
2017-12-27T00:38:33.673Z,6.59
2017-12-27T00:39:35.089Z,6.79
2017-12-27T00:40:36.513Z,6.61
2017-12-27T00:41:37.915Z,6.69
2017-12-27T00:42:39.324Z,6.69
2017-12-27T00:43:40.740Z,6.81
2017-12-27T00:44:42.142Z,6.72
2017-12-27T00:45:43.557Z,6.63
2017-12-27T00:46:45.038Z,6.63
2017-12-27T00:47:46.449Z,6.62
2017-12-27T00:48:47.854Z,6.63
2017-12-27T00:49:49.264Z,6.61
2017-12-27T00:50:50.679Z,6.72
2017-12-27T00:51:52.083Z,6.69
2017-12-27T00:52:53.501Z,6.62
2017-12-27T00:53:54.903Z,6.68
2017-12-27T00:54:56.323Z,6.68
2017-12-27T00:55:57.730Z,6.68
2017-12-27T00:56:59.145Z,6.68
2017-12-27T00:58:00.560Z,6.50
2017-12-27T00:59:01.979Z,6.63
2017-12-27T01:00:03.396Z,6.63
2017-12-27T01:01:04.797Z,6.66
2017-12-27T01:02:06.211Z,6.72
2017-12-27T01:03:07.614Z,6.68
2017-12-27T01:04:09.040Z,6.66
2017-12-27T01:05:10.447Z,6.68
2017-12-27T01:06:11.855Z,6.58
2017-12-27T01:07:13.281Z,6.61
2017-12-27T01:08:14.686Z,6.61
2017-12-27T01:09:16.140Z,6.73
2017-12-27T01:10:17.521Z,6.71
2017-12-27T01:11:18.935Z,6.66
2017-12-27T01:12:20.341Z,6.68
2017-12-27T01:13:21.752Z,6.71
2017-12-27T01:14:23.163Z,6.71
2017-12-27T01:15:24.569Z,6.89
2017-12-27T01:16:25.981Z,6.81
2017-12-27T01:17:27.397Z,6.79
2017-12-27T01:18:28.810Z,6.71
2017-12-27T01:19:30.226Z,6.63
2017-12-27T01:20:31.637Z,6.71
2017-12-27T01:21:33.042Z,6.86
2017-12-27T01:22:34.444Z,6.79
2017-12-27T01:23:35.851Z,6.76
2017-12-27T01:24:37.261Z,6.79
2017-12-27T01:25:38.664Z,6.73
2017-12-27T01:26:40.068Z,6.80
2017-12-27T01:27:41.478Z,6.76
2017-12-27T01:28:42.878Z,6.83
2017-12-27T01:29:44.284Z,6.71
2017-12-27T01:30:45.690Z,6.72
2017-12-27T01:31:47.116Z,6.68
2017-12-27T01:32:48.520Z,6.84
2017-12-27T01:33:49.933Z,6.73
2017-12-27T01:34:51.344Z,6.77
2017-12-27T01:35:52.831Z,6.80
2017-12-27T01:36:54.238Z,6.73
2017-12-27T01:37:55.650Z,6.76
2017-12-27T01:38:57.058Z,6.81
2017-12-27T01:39:58.464Z,6.91
2017-12-27T01:40:59.868Z,6.81
2017-12-27T01:42:01.285Z,6.66
2017-12-27T01:43:02.697Z,6.79
2017-12-27T01:44:04.107Z,6.69
2017-12-27T01:45:05.523Z,6.69
2017-12-27T01:46:06.944Z,6.72
2017-12-27T01:47:08.346Z,6.76
2017-12-27T01:48:09.755Z,6.80
2017-12-27T01:49:11.168Z,6.79
2017-12-27T01:50:12.573Z,6.71
2017-12-27T01:51:13.979Z,6.68
2017-12-27T01:52:15.385Z,6.79
2017-12-27T01:53:16.803Z,6.83
2017-12-27T01:54:18.226Z,6.71
2017-12-27T01:55:19.699Z,6.71
2017-12-27T01:56:21.120Z,6.73
2017-12-27T01:57:22.526Z,6.69
2017-12-27T01:58:23.926Z,6.63
2017-12-27T01:59:25.339Z,6.72
2017-12-27T02:00:26.748Z,6.73
2017-12-27T02:01:28.165Z,6.84
2017-12-27T02:02:29.585Z,6.79
2017-12-27T02:03:31.001Z,6.69
2017-12-27T02:04:32.399Z,6.65
2017-12-27T02:05:33.807Z,6.65
2017-12-27T02:06:35.225Z,6.83
2017-12-27T02:07:36.644Z,6.89
2017-12-27T02:08:38.047Z,6.84
2017-12-27T02:09:39.457Z,6.76
2017-12-27T02:10:40.868Z,6.83
2017-12-27T02:11:42.274Z,6.83
2017-12-27T02:12:43.683Z,6.83
2017-12-27T02:13:45.097Z,6.63
2017-12-27T02:14:46.508Z,6.65
2017-12-27T02:15:47.919Z,6.68
2017-12-27T02:16:49.339Z,6.71
2017-12-27T02:17:50.751Z,6.84
2017-12-27T02:18:52.154Z,6.83
2017-12-27T02:19:53.570Z,6.91
2017-12-27T02:20:54.976Z,7.01
2017-12-27T02:21:56.388Z,7.01
2017-12-27T02:22:57.786Z,6.81
2017-12-27T02:23:59.199Z,6.91
2017-12-27T02:25:00.614Z,6.81
2017-12-27T02:26:02.026Z,6.94
2017-12-27T02:27:03.435Z,6.97
2017-12-27T02:28:04.847Z,7.01
2017-12-27T02:29:06.257Z,6.97
2017-12-27T02:30:07.661Z,6.87
2017-12-27T02:31:09.078Z,7.09
2017-12-27T02:32:10.491Z,7.09
2017-12-27T02:33:11.896Z,7.07
2017-12-27T02:34:13.309Z,7.22
2017-12-27T02:35:14.717Z,7.04
2017-12-27T02:36:16.124Z,7.08
2017-12-27T02:37:17.536Z,7.08
2017-12-27T02:38:18.944Z,7.17
2017-12-27T02:39:20.458Z,7.05
2017-12-27T02:40:21.870Z,7.07
2017-12-27T02:41:23.275Z,7.08
2017-12-27T02:42:24.679Z,7.17
2017-12-27T02:43:26.097Z,7.19
2017-12-27T02:44:27.497Z,7.20
2017-12-27T02:45:28.926Z,7.07
2017-12-27T02:46:30.341Z,7.05
2017-12-27T02:47:31.745Z,7.05
2017-12-27T02:48:33.154Z,7.07
2017-12-27T02:49:34.564Z,7.24
2017-12-27T02:50:35.971Z,7.32
2017-12-27T02:51:37.379Z,7.23
2017-12-27T02:52:38.787Z,7.24
2017-12-27T02:53:40.193Z,7.17
2017-12-27T02:54:41.601Z,7.22
2017-12-27T02:55:43.020Z,7.07
2017-12-27T02:56:44.477Z,7.20
2017-12-27T02:57:45.838Z,7.12
2017-12-27T02:58:47.250Z,7.13
2017-12-27T02:59:48.662Z,7.23
2017-12-27T03:00:50.068Z,7.24
2017-12-27T03:01:51.504Z,7.23
2017-12-27T03:02:52.913Z,7.17
2017-12-27T03:03:54.323Z,7.17
2017-12-27T03:04:55.727Z,7.19
2017-12-27T03:05:57.136Z,7.29
2017-12-27T03:06:58.546Z,7.29
2017-12-27T03:07:59.974Z,7.27
2017-12-27T03:09:01.379Z,7.26
2017-12-27T03:10:02.835Z,7.27
2017-12-27T03:11:04.242Z,7.32
2017-12-27T03:12:05.653Z,7.37
2017-12-27T03:13:07.057Z,7.32
2017-12-27T03:14:08.461Z,7.35
2017-12-27T03:15:09.878Z,7.42
2017-12-27T03:16:11.284Z,7.41
2017-12-27T03:17:12.699Z,7.47
2017-12-27T03:18:14.114Z,7.42
2017-12-27T03:19:15.539Z,7.37
2017-12-27T03:20:16.956Z,7.34
2017-12-27T03:21:18.367Z,7.35
2017-12-27T03:22:19.774Z,7.40
2017-12-27T03:23:21.186Z,7.50
2017-12-27T03:24:22.595Z,7.41
2017-12-27T03:25:24.014Z,7.41
2017-12-27T03:26:25.418Z,7.44
2017-12-27T03:27:26.827Z,7.38
2017-12-27T03:28:28.247Z,7.42
2017-12-27T03:29:29.655Z,7.42
2017-12-27T03:30:31.053Z,7.31
2017-12-27T03:31:32.468Z,7.29
2017-12-27T03:32:33.876Z,7.38
2017-12-27T03:33:35.284Z,7.49
2017-12-27T03:34:36.691Z,7.37
2017-12-27T03:35:38.097Z,7.42
2017-12-27T03:36:39.503Z,7.52
2017-12-27T03:37:40.916Z,7.40
2017-12-27T03:38:42.322Z,7.40
2017-12-27T03:39:43.742Z,7.37
2017-12-27T03:40:45.158Z,7.31
2017-12-27T03:41:46.567Z,7.37
2017-12-27T03:42:47.973Z,7.32
2017-12-27T03:43:49.386Z,7.45
2017-12-27T03:44:50.794Z,7.44
2017-12-27T03:45:52.204Z,7.40
2017-12-27T03:46:53.605Z,7.38
2017-12-27T03:47:55.020Z,7.24
2017-12-27T03:48:56.435Z,7.24
2017-12-27T03:49:57.842Z,7.44
2017-12-27T03:50:59.269Z,7.49
2017-12-27T03:52:00.684Z,7.56
2017-12-27T03:53:02.092Z,7.40
2017-12-27T03:54:03.493Z,7.47
2017-12-27T03:55:04.911Z,7.47
2017-12-27T03:56:06.318Z,7.52
2017-12-27T03:57:07.724Z,7.53
2017-12-27T03:58:09.136Z,7.49
2017-12-27T03:59:10.542Z,7.45
2017-12-27T04:00:11.951Z,7.58
2017-12-27T04:01:13.368Z,7.55
2017-12-27T04:02:14.776Z,7.41
2017-12-27T04:03:16.183Z,7.44
2017-12-27T04:04:17.600Z,7.45
2017-12-27T04:05:19.009Z,7.53
2017-12-27T04:06:20.417Z,7.47
2017-12-27T04:07:21.829Z,7.58
2017-12-27T04:08:23.244Z,7.69
2017-12-27T04:09:24.652Z,7.74
2017-12-27T04:10:26.066Z,7.67
2017-12-27T04:11:27.475Z,7.55
2017-12-27T04:12:28.885Z,7.44
2017-12-27T04:13:30.299Z,7.55
2017-12-27T04:14:31.706Z,7.63
2017-12-27T04:15:33.114Z,7.60
2017-12-27T04:16:34.528Z,7.53
2017-12-27T04:17:35.935Z,7.52
2017-12-27T04:18:37.345Z,7.66
2017-12-27T04:19:38.758Z,7.66
2017-12-27T04:20:40.162Z,7.56
2017-12-27T04:21:41.564Z,7.41
2017-12-27T04:22:42.977Z,7.47
2017-12-27T04:23:44.425Z,7.50
2017-12-27T04:24:45.833Z,7.62
2017-12-27T04:25:47.241Z,7.59
2017-12-27T04:26:48.651Z,7.58
2017-12-27T04:27:50.057Z,7.60
2017-12-27T04:28:51.467Z,7.66
2017-12-27T04:29:52.873Z,7.59
2017-12-27T04:30:54.410Z,7.63
2017-12-27T04:31:55.825Z,7.63
2017-12-27T04:32:57.232Z,7.58
2017-12-27T04:33:58.636Z,7.63
2017-12-27T04:35:00.047Z,7.75
2017-12-27T04:36:01.471Z,7.59
2017-12-27T04:37:02.876Z,7.67
2017-12-27T04:38:04.296Z,7.58
2017-12-27T04:39:05.709Z,7.59
2017-12-27T04:40:07.113Z,7.45
2017-12-27T04:41:08.523Z,7.52
2017-12-27T04:42:09.934Z,7.49
2017-12-27T04:43:11.347Z,7.56
2017-12-27T04:44:12.758Z,7.59
2017-12-27T04:45:14.165Z,7.67
2017-12-27T04:46:15.575Z,7.58
2017-12-27T04:47:16.991Z,7.78
2017-12-27T04:48:18.405Z,7.67
2017-12-27T04:49:19.809Z,7.72
2017-12-27T04:50:21.225Z,7.72
2017-12-27T04:51:22.632Z,7.99
2017-12-27T04:52:24.048Z,7.82
2017-12-27T04:53:25.457Z,7.74
2017-12-27T04:54:26.871Z,7.84
2017-12-27T04:55:28.275Z,7.79
2017-12-27T04:56:29.683Z,7.82
2017-12-27T04:57:31.092Z,7.78
2017-12-27T04:58:32.510Z,7.75
2017-12-27T04:59:35.102Z,7.81
2017-12-27T05:00:36.506Z,7.62
2017-12-27T05:01:37.915Z,7.74
2017-12-27T05:02:39.325Z,7.78
2017-12-27T05:03:40.742Z,7.74
2017-12-27T05:04:42.159Z,7.82
2017-12-27T05:05:43.576Z,7.74
2017-12-27T05:06:44.980Z,7.69
2017-12-27T05:07:46.396Z,7.62
2017-12-27T05:08:47.807Z,7.72
2017-12-27T05:09:49.220Z,7.59
2017-12-27T05:10:50.635Z,7.66
2017-12-27T05:11:52.050Z,7.99
2017-12-27T05:12:53.464Z,8.29
2017-12-27T05:13:54.870Z,8.03
2017-12-27T05:14:56.278Z,7.85
2017-12-27T05:15:57.692Z,7.72
2017-12-27T05:16:59.105Z,7.72
2017-12-27T05:18:00.525Z,7.74
2017-12-27T05:19:01.920Z,7.78
2017-12-27T05:20:03.339Z,7.72
2017-12-27T05:21:04.749Z,7.59
2017-12-27T05:22:06.158Z,7.69
2017-12-27T05:23:07.576Z,7.62
2017-12-27T05:24:08.987Z,7.84
2017-12-27T05:25:10.398Z,7.77
2017-12-27T05:26:11.812Z,7.75
2017-12-27T05:27:13.256Z,7.85
2017-12-27T05:28:14.747Z,7.82
2017-12-27T05:29:16.157Z,7.85
2017-12-27T05:30:17.568Z,8.02
2017-12-27T05:31:18.982Z,8.55
2017-12-27T05:32:20.391Z,8.48
2017-12-27T05:33:22.471Z,8.45
2017-12-27T05:34:23.889Z,8.42
2017-12-27T05:35:25.301Z,8.57
2017-12-27T05:36:27.423Z,8.03
2017-12-27T05:37:28.931Z,7.96
2017-12-27T05:38:30.007Z,7.84
2017-12-27T05:39:32.140Z,7.89
2017-12-27T05:40:33.562Z,7.84
2017-12-27T05:41:34.974Z,7.85
2017-12-27T05:42:36.390Z,7.74
2017-12-27T05:43:38.442Z,7.74
2017-12-27T05:44:39.936Z,7.56
2017-12-27T05:45:42.111Z,7.72
2017-12-27T05:46:43.528Z,7.62
2017-12-27T05:47:44.960Z,7.85
2017-12-27T05:48:46.355Z,7.96
2017-12-27T05:49:48.546Z,7.84
2017-12-27T05:50:50.051Z,7.71
2017-12-27T05:51:51.122Z,7.59
2017-12-27T05:52:53.382Z,7.44
2017-12-27T05:53:55.550Z,7.42
2017-12-27T05:54:56.167Z,7.42
2017-12-27T05:55:57.584Z,7.55
2017-12-27T05:56:59.546Z,7.34
2017-12-27T05:58:01.174Z,7.44
2017-12-27T05:59:03.256Z,7.41
2017-12-27T06:00:04.674Z,7.35
2017-12-27T06:01:06.091Z,7.52
2017-12-27T06:02:08.218Z,7.38
2017-12-27T06:03:09.638Z,7.42
2017-12-27T06:04:11.052Z,7.29
2017-12-27T06:05:12.456Z,7.20
2017-12-27T06:06:13.865Z,7.22
2017-12-27T06:07:16.307Z,7.22
2017-12-27T06:08:17.728Z,7.29
2017-12-27T06:09:19.132Z,7.20
2017-12-27T06:10:20.546Z,7.17
2017-12-27T06:11:21.969Z,7.27
2017-12-27T06:12:23.377Z,7.15
2017-12-27T06:13:24.875Z,7.24
2017-12-27T06:14:26.288Z,7.16
2017-12-27T06:15:27.704Z,7.23
2017-12-27T06:16:29.677Z,7.37
2017-12-27T06:17:31.765Z,7.16
2017-12-27T06:18:34.019Z,7.23
2017-12-27T06:19:35.430Z,7.19
2017-12-27T06:20:36.837Z,7.16
2017-12-27T06:21:38.253Z,7.19
2017-12-27T06:22:39.661Z,7.22
2017-12-27T06:23:41.070Z,7.22
2017-12-27T06:24:42.485Z,7.15
2017-12-27T06:25:43.897Z,7.13
2017-12-27T06:26:45.360Z,7.22
2017-12-27T06:27:46.770Z,7.07
2017-12-27T06:28:48.189Z,7.19
2017-12-27T06:29:49.602Z,7.15
2017-12-27T06:30:51.650Z,7.15
2017-12-27T06:31:53.768Z,7.09
2017-12-27T06:32:55.182Z,7.20
2017-12-27T06:33:56.592Z,7.17
2017-12-27T06:34:58.010Z,6.90
2017-12-27T06:35:59.426Z,7.04
2017-12-27T06:37:00.843Z,7.09
2017-12-27T06:38:03.086Z,7.07
2017-12-27T06:39:03.613Z,7.16
2017-12-27T06:40:05.587Z,7.09
2017-12-27T06:41:07.200Z,7.05
2017-12-27T06:42:09.470Z,7.07
2017-12-27T06:43:10.877Z,7.16
2017-12-27T06:44:12.288Z,7.08
2017-12-27T06:45:13.693Z,7.04
2017-12-27T06:46:15.104Z,7.02
2017-12-27T06:47:17.162Z,7.05
2017-12-27T06:48:18.582Z,7.04
2017-12-27T06:49:19.987Z,7.15
2017-12-27T06:50:21.403Z,7.15
2017-12-27T06:51:22.815Z,7.19
2017-12-27T06:52:24.229Z,7.15
2017-12-27T06:53:25.648Z,7.16
2017-12-27T06:54:27.062Z,7.22
2017-12-27T06:55:28.474Z,7.17
2017-12-27T06:56:29.888Z,7.26
2017-12-27T06:57:31.301Z,7.35
2017-12-27T06:58:52.942Z,7.31
2017-12-27T06:59:54.377Z,7.34
2017-12-27T07:00:55.757Z,7.26
2017-12-27T07:01:57.158Z,7.22
2017-12-27T07:02:58.567Z,7.29
2017-12-27T07:03:59.976Z,7.42
2017-12-27T07:05:01.386Z,7.27
2017-12-27T07:06:02.826Z,7.26
2017-12-27T07:07:04.239Z,7.29
2017-12-27T07:08:05.648Z,7.34
2017-12-27T07:09:07.072Z,7.42
2017-12-27T07:10:08.483Z,7.32
2017-12-27T07:11:09.893Z,7.37
2017-12-27T07:12:11.311Z,7.41
2017-12-27T07:13:12.724Z,7.32
2017-12-27T07:14:14.126Z,7.29
2017-12-27T07:15:15.539Z,7.37
2017-12-27T07:16:16.958Z,7.42
2017-12-27T07:17:18.364Z,7.40
2017-12-27T07:18:19.777Z,7.38
2017-12-27T07:19:21.179Z,7.52
2017-12-27T07:20:22.610Z,7.38
2017-12-27T07:21:24.027Z,7.56
2017-12-27T07:22:25.424Z,7.59
2017-12-27T07:23:26.838Z,7.56
2017-12-27T07:24:28.250Z,7.49
2017-12-27T07:25:29.650Z,7.42
2017-12-27T07:26:31.073Z,7.56
2017-12-27T07:27:32.481Z,7.41
2017-12-27T07:28:33.898Z,7.49
2017-12-27T07:29:35.294Z,7.44
2017-12-27T07:30:36.705Z,7.52
2017-12-27T07:31:38.114Z,7.41
2017-12-27T07:32:39.526Z,7.42
2017-12-27T07:33:40.957Z,7.45
2017-12-27T07:34:42.370Z,7.49
2017-12-27T07:35:43.778Z,7.49
2017-12-27T07:36:45.198Z,7.41
2017-12-27T07:37:46.618Z,7.49
2017-12-27T07:38:48.024Z,7.34
2017-12-27T07:39:49.429Z,7.45
2017-12-27T07:40:50.837Z,7.32
2017-12-27T07:41:52.246Z,7.32
2017-12-27T07:42:53.654Z,7.40
2017-12-27T07:43:55.066Z,7.34
2017-12-27T07:44:56.480Z,7.35
2017-12-27T07:45:57.897Z,7.32
2017-12-27T07:46:59.299Z,7.32
2017-12-27T07:48:00.715Z,7.29
2017-12-27T07:49:02.186Z,7.34
2017-12-27T07:50:03.596Z,7.31
2017-12-27T07:51:05.006Z,7.26
2017-12-27T07:52:06.414Z,7.26
2017-12-27T07:53:07.828Z,7.26
2017-12-27T07:54:09.239Z,7.26
2017-12-27T07:55:10.640Z,7.24
2017-12-27T07:56:12.051Z,7.19
2017-12-27T07:57:13.471Z,7.29
2017-12-27T07:58:14.880Z,7.37
2017-12-27T07:59:16.291Z,7.34
2017-12-27T08:00:17.704Z,7.34
2017-12-27T08:01:19.175Z,7.32
2017-12-27T08:02:20.599Z,7.37
2017-12-27T08:03:21.999Z,7.27
2017-12-27T08:04:23.410Z,7.37
2017-12-27T08:05:24.814Z,7.32
2017-12-27T08:06:26.237Z,7.29
2017-12-27T08:07:27.658Z,7.24
2017-12-27T08:08:29.078Z,7.31
2017-12-27T08:09:30.490Z,7.24
2017-12-27T08:10:31.905Z,7.24
2017-12-27T08:11:33.312Z,7.31
2017-12-27T08:12:34.727Z,7.26
2017-12-27T08:13:36.139Z,7.23
2017-12-27T08:14:37.562Z,7.24
2017-12-27T08:15:38.966Z,7.31
2017-12-27T08:16:40.382Z,7.27
2017-12-27T08:17:41.799Z,7.31
2017-12-27T08:18:43.224Z,7.31
2017-12-27T08:19:44.631Z,7.31
2017-12-27T08:20:46.039Z,7.24
2017-12-27T08:21:47.456Z,7.20
2017-12-27T08:22:48.884Z,7.23
2017-12-27T08:23:50.280Z,7.17
2017-12-27T08:24:51.692Z,7.29
2017-12-27T08:25:53.101Z,7.27
2017-12-27T08:26:54.519Z,7.27
2017-12-27T08:27:55.933Z,7.20
2017-12-27T08:28:57.349Z,7.17
2017-12-27T08:29:58.766Z,7.15
2017-12-27T08:31:00.181Z,7.16
2017-12-27T08:32:01.597Z,7.27
2017-12-27T08:33:03.008Z,7.32
2017-12-27T08:34:04.421Z,7.20
2017-12-27T08:35:05.829Z,7.22
2017-12-27T08:36:07.234Z,7.22
2017-12-27T08:37:08.646Z,7.26
2017-12-27T08:38:10.060Z,7.32
2017-12-27T08:39:11.483Z,7.32
2017-12-27T08:40:12.890Z,7.19
2017-12-27T08:41:14.306Z,7.22
2017-12-27T08:42:15.720Z,7.29
2017-12-27T08:43:17.141Z,7.29
2017-12-27T08:44:18.545Z,7.24
2017-12-27T08:45:19.971Z,7.37
2017-12-27T08:46:21.377Z,7.31
2017-12-27T08:47:22.814Z,7.31
2017-12-27T08:48:24.200Z,7.34
2017-12-27T08:49:25.611Z,7.24
2017-12-27T08:50:27.026Z,7.29
2017-12-27T08:51:28.435Z,7.29
2017-12-27T08:52:29.847Z,7.32
2017-12-27T08:53:31.260Z,7.29
2017-12-27T08:54:32.676Z,7.19
2017-12-27T08:55:34.089Z,7.29
2017-12-27T08:56:35.496Z,7.23
2017-12-27T08:57:36.985Z,7.27
2017-12-27T08:58:38.398Z,7.24
2017-12-27T08:59:39.810Z,7.24
2017-12-27T09:00:41.219Z,7.27
2017-12-27T09:01:42.635Z,7.23
2017-12-27T09:02:44.052Z,7.15
2017-12-27T09:03:45.460Z,7.23
2017-12-27T09:04:46.869Z,7.16
2017-12-27T09:05:48.283Z,7.23
2017-12-27T09:06:49.693Z,7.09
2017-12-27T09:07:51.103Z,7.15
2017-12-27T09:08:52.520Z,7.05
2017-12-27T09:09:53.935Z,7.13
2017-12-27T09:10:55.353Z,7.08
2017-12-27T09:11:56.757Z,7.07
2017-12-27T09:12:58.163Z,6.99
2017-12-27T09:13:59.580Z,7.04
2017-12-27T09:15:00.989Z,7.19
2017-12-27T09:16:02.413Z,7.17
2017-12-27T09:17:03.838Z,7.17
2017-12-27T09:18:05.249Z,7.23
2017-12-27T09:19:06.667Z,7.31
2017-12-27T09:20:08.084Z,7.22
2017-12-27T09:21:09.500Z,7.26
2017-12-27T09:22:10.899Z,7.32
2017-12-27T09:23:12.318Z,7.34
2017-12-27T09:24:13.727Z,7.32
2017-12-27T09:25:15.137Z,7.26
2017-12-27T09:26:16.560Z,7.34
2017-12-27T09:27:17.974Z,7.37
2017-12-27T09:28:19.387Z,7.34
2017-12-27T09:29:20.805Z,7.38
2017-12-27T09:30:22.217Z,7.40
2017-12-27T09:31:23.633Z,7.40
2017-12-27T09:32:25.056Z,7.42
2017-12-27T09:33:26.491Z,7.34
2017-12-27T09:34:27.915Z,7.32
2017-12-27T09:35:29.317Z,7.37
2017-12-27T09:36:30.726Z,7.42
2017-12-27T09:37:32.147Z,7.49
2017-12-27T09:38:33.560Z,7.42
2017-12-27T09:39:34.982Z,7.52
2017-12-27T09:40:36.387Z,7.42
2017-12-27T09:41:37.807Z,7.41
2017-12-27T09:42:39.239Z,7.44
2017-12-27T09:43:40.660Z,7.47
2017-12-27T09:44:42.070Z,7.52
2017-12-27T09:45:43.479Z,7.37
2017-12-27T09:46:44.898Z,7.45
2017-12-27T09:47:46.307Z,7.44
2017-12-27T09:48:47.731Z,7.55
2017-12-27T09:49:49.137Z,7.53
2017-12-27T09:50:50.562Z,7.62
2017-12-27T09:51:51.967Z,7.62
2017-12-27T09:52:53.380Z,7.63
2017-12-27T09:53:54.794Z,7.63
2017-12-27T09:54:56.202Z,7.63
2017-12-27T09:55:57.629Z,7.55
2017-12-27T09:56:59.038Z,7.60
2017-12-27T09:58:00.460Z,7.66
2017-12-27T09:59:01.877Z,7.62
2017-12-27T10:00:03.295Z,7.59
2017-12-27T10:01:04.718Z,7.60
2017-12-27T10:02:06.127Z,7.74
2017-12-27T10:03:07.540Z,7.77
2017-12-27T10:04:08.957Z,7.89
2017-12-27T10:05:10.372Z,7.62
2017-12-27T10:06:11.788Z,7.60
2017-12-27T10:07:13.200Z,7.77
2017-12-27T10:08:14.624Z,7.63
2017-12-27T10:09:16.025Z,7.59
2017-12-27T10:10:17.441Z,7.53
2017-12-27T10:11:18.852Z,7.63
2017-12-27T10:12:20.263Z,7.74
2017-12-27T10:13:21.676Z,7.71
2017-12-27T10:14:23.102Z,7.72
2017-12-27T10:15:24.498Z,7.74
2017-12-27T10:16:25.912Z,7.75
2017-12-27T10:17:27.327Z,7.69
2017-12-27T10:18:28.738Z,7.72
2017-12-27T10:19:30.155Z,7.78
2017-12-27T10:20:31.608Z,7.59
2017-12-27T10:21:33.020Z,7.71
2017-12-27T10:22:34.447Z,7.78
2017-12-27T10:23:35.852Z,7.81
2017-12-27T10:24:37.257Z,7.92
2017-12-27T10:25:38.680Z,7.71
2017-12-27T10:26:40.124Z,7.74
2017-12-27T10:27:41.529Z,7.79
2017-12-27T10:28:42.951Z,7.84
2017-12-27T10:29:44.356Z,7.78
2017-12-27T10:30:45.783Z,7.90
2017-12-27T10:31:47.200Z,7.75
2017-12-27T10:32:48.653Z,7.81
2017-12-27T10:33:50.063Z,7.81
2017-12-27T10:34:51.472Z,7.82
2017-12-27T10:35:52.882Z,7.92
2017-12-27T10:36:54.298Z,7.96
2017-12-27T10:37:55.716Z,7.84
2017-12-27T10:38:57.185Z,7.75
2017-12-27T10:39:58.596Z,7.82
2017-12-27T10:41:00.013Z,7.81
2017-12-27T10:42:01.417Z,7.72
2017-12-27T10:43:02.831Z,7.60
2017-12-27T10:44:04.244Z,7.59
2017-12-27T10:45:05.661Z,7.72
2017-12-27T10:46:07.074Z,7.72
2017-12-27T10:47:08.490Z,7.63
2017-12-27T10:48:09.912Z,7.62
2017-12-27T10:49:11.323Z,7.56
2017-12-27T10:50:12.729Z,7.69
2017-12-27T10:51:14.140Z,7.63
2017-12-27T10:52:15.548Z,7.72
2017-12-27T10:53:16.967Z,7.62
2017-12-27T10:54:18.376Z,7.67
2017-12-27T10:55:19.791Z,7.69
2017-12-27T10:56:21.201Z,7.74
2017-12-27T10:57:22.612Z,7.82
2017-12-27T10:58:24.021Z,7.77
2017-12-27T10:59:25.440Z,7.77
2017-12-27T11:00:26.851Z,7.75
2017-12-27T11:01:28.275Z,7.75
2017-12-27T11:02:29.696Z,7.74
2017-12-27T11:03:31.112Z,7.75
2017-12-27T11:04:32.520Z,7.71
2017-12-27T11:05:33.932Z,7.77
2017-12-27T11:06:35.352Z,7.78
2017-12-27T11:07:36.773Z,7.77
2017-12-27T11:08:38.192Z,7.67
2017-12-27T11:09:39.608Z,7.75
2017-12-27T11:10:41.030Z,7.85
2017-12-27T11:11:42.452Z,7.81
2017-12-27T11:12:43.864Z,7.82
2017-12-27T11:13:45.282Z,7.92
2017-12-27T11:14:46.701Z,7.96
2017-12-27T11:15:48.112Z,8.04
2017-12-27T11:16:49.527Z,8.04
2017-12-27T11:17:50.941Z,8.00
2017-12-27T11:18:52.374Z,7.99
2017-12-27T11:19:53.794Z,8.07
2017-12-27T11:20:55.207Z,8.21
2017-12-27T11:21:56.621Z,8.12
2017-12-27T11:22:58.039Z,7.97
2017-12-27T11:23:59.460Z,8.14
2017-12-27T11:25:00.872Z,8.07
2017-12-27T11:26:02.291Z,8.20
2017-12-27T11:27:03.698Z,7.99
2017-12-27T11:28:05.111Z,7.93
2017-12-27T11:29:06.530Z,7.90
2017-12-27T11:30:07.941Z,7.87
2017-12-27T11:31:09.355Z,7.85
2017-12-27T11:32:10.759Z,7.90
2017-12-27T11:33:12.175Z,7.87
2017-12-27T11:34:13.585Z,7.82
2017-12-27T11:35:14.997Z,7.82
2017-12-27T11:36:16.419Z,7.74
2017-12-27T11:37:17.841Z,7.78
2017-12-27T11:38:19.262Z,7.81
2017-12-27T11:39:20.673Z,7.93
2017-12-27T11:40:22.085Z,7.85
2017-12-27T11:41:23.505Z,8.00
2017-12-27T11:42:24.918Z,8.00
2017-12-27T11:43:26.336Z,8.20
2017-12-27T11:44:27.749Z,8.03
2017-12-27T11:45:29.159Z,8.17
2017-12-27T11:46:30.572Z,8.29
2017-12-27T11:47:31.981Z,8.14
2017-12-27T11:48:33.704Z,8.15
2017-12-27T11:49:35.119Z,8.21
2017-12-27T11:50:36.538Z,8.12
2017-12-27T11:51:37.961Z,8.37
2017-12-27T11:52:39.377Z,8.28
2017-12-27T11:53:40.792Z,8.33
2017-12-27T11:54:42.203Z,8.26
2017-12-27T11:55:43.617Z,8.32
2017-12-27T11:56:45.036Z,8.26
2017-12-27T11:57:46.452Z,8.36
2017-12-27T11:58:47.874Z,8.20
2017-12-27T11:59:49.359Z,8.29
2017-12-27T12:00:50.730Z,8.32
2017-12-27T12:01:52.157Z,8.36
2017-12-27T12:02:53.580Z,8.53
2017-12-27T12:03:55.005Z,8.55
2017-12-27T12:04:56.427Z,8.53
2017-12-27T12:05:57.844Z,8.58
2017-12-27T12:06:59.254Z,8.66
2017-12-27T12:08:00.680Z,8.55
2017-12-27T12:09:02.102Z,8.53
2017-12-27T12:10:03.519Z,8.62
2017-12-27T12:11:04.934Z,8.51
2017-12-27T12:12:06.345Z,8.60
2017-12-27T12:13:07.765Z,8.62
2017-12-27T12:14:09.191Z,8.53
2017-12-27T12:15:10.606Z,8.35
2017-12-27T12:16:12.026Z,8.48
2017-12-27T12:17:13.498Z,8.62
2017-12-27T12:18:14.909Z,8.58
2017-12-27T12:19:16.327Z,8.55
2017-12-27T12:20:17.739Z,8.53
2017-12-27T12:21:19.161Z,8.51
2017-12-27T12:22:20.584Z,8.55
2017-12-27T12:23:22.013Z,8.73
2017-12-27T12:24:23.742Z,8.68
2017-12-27T12:25:25.166Z,8.73
2017-12-27T12:26:26.586Z,8.83
2017-12-27T12:27:28.023Z,8.87
2017-12-27T12:28:29.439Z,8.76
2017-12-27T12:29:30.897Z,8.84
2017-12-27T12:30:32.319Z,8.97
2017-12-27T12:31:33.732Z,8.81
2017-12-27T12:32:35.142Z,8.78
2017-12-27T12:33:36.592Z,8.90
2017-12-27T12:34:38.101Z,8.93
2017-12-27T12:35:39.516Z,8.94
2017-12-27T12:36:40.937Z,8.78
2017-12-27T12:37:42.357Z,8.72
2017-12-27T12:38:43.773Z,8.72
2017-12-27T12:39:45.191Z,8.81
2017-12-27T12:40:46.613Z,8.91
2017-12-27T12:41:48.064Z,8.91
2017-12-27T12:42:49.483Z,8.99
2017-12-27T12:43:50.913Z,8.99
2017-12-27T12:44:52.335Z,9.01
2017-12-27T12:45:53.750Z,9.06
2017-12-27T12:46:55.189Z,8.94
2017-12-27T12:47:56.602Z,9.06
2017-12-27T12:48:58.029Z,9.01
2017-12-27T12:49:59.442Z,9.18
2017-12-27T12:51:00.872Z,9.13
2017-12-27T12:52:02.294Z,9.02
2017-12-27T12:53:03.712Z,8.96
2017-12-27T12:54:05.268Z,8.91
2017-12-27T12:55:06.649Z,8.83
2017-12-27T12:56:08.065Z,8.96
2017-12-27T12:57:09.493Z,8.88
2017-12-27T12:58:10.896Z,8.94
2017-12-27T12:59:12.313Z,8.90
2017-12-27T13:00:13.731Z,9.16
2017-12-27T13:01:15.149Z,8.88
2017-12-27T13:02:16.574Z,8.79
2017-12-27T13:03:17.979Z,8.71
2017-12-27T13:04:19.399Z,8.91
2017-12-27T13:05:20.816Z,8.99
2017-12-27T13:06:22.222Z,8.83
2017-12-27T13:07:23.642Z,8.83
2017-12-27T13:08:25.058Z,8.79
2017-12-27T13:09:26.490Z,8.93
2017-12-27T13:10:27.909Z,9.28
2017-12-27T13:11:29.318Z,9.28
2017-12-27T13:12:30.729Z,9.18
2017-12-27T13:13:32.151Z,9.10
2017-12-27T13:14:33.558Z,9.10
2017-12-27T13:15:34.974Z,9.12
2017-12-27T13:16:36.388Z,9.16
2017-12-27T13:17:37.804Z,9.05
2017-12-27T13:18:39.211Z,9.01
2017-12-27T13:19:40.688Z,9.02
2017-12-27T13:20:42.099Z,8.97
2017-12-27T13:21:43.523Z,9.06
2017-12-27T13:22:44.949Z,9.09
2017-12-27T13:23:46.362Z,8.97
2017-12-27T13:24:47.784Z,8.94
2017-12-27T13:25:49.202Z,8.93
2017-12-27T13:26:50.621Z,8.96
2017-12-27T13:27:52.040Z,8.91
2017-12-27T13:28:53.464Z,8.91
2017-12-27T13:29:54.878Z,8.83
2017-12-27T13:30:56.301Z,8.86
2017-12-27T13:31:57.734Z,9.05
2017-12-27T13:32:59.152Z,9.01
2017-12-27T13:34:00.581Z,8.97
2017-12-27T13:35:01.989Z,9.09
2017-12-27T13:36:03.402Z,8.97
2017-12-27T13:37:04.822Z,9.01
2017-12-27T13:38:06.236Z,8.79